Airfield :
LOGIN :

Register | Disclaimer

   EN    FR    IT 

 










Legend :    VFR   Marginal VFR   IFR   Intensive IFR   Very Intensive IFR
Visi :
Ceiling :
>= 8 km
>= 3000ft
5 to 8 km
1000 to 3000 ft
1500m to 5 km
500 to 1000 ft
800 to 1500m
200 to 500 ft
< 800m
< 200 ft
Symbols :   Thunderstorms  Fog  Heavy snow  Heavy precipitations  Wind > 20 kt
SIGMETs :     Misc.  Thunderstorms  Icing  Turbulence  Mountain Waves  Volcanic Ashes







- Airport Elevation : 1487 ft
- IATA code : MUC


EDDM - München Franz Josef Strauss

CURRENT METAR :
  • 250550Z 29004KT 230V330 9999 FEW006 SCT050 BKN120 13/10 Q1021 NOSIG

EXPIRED METARs :
  • 250520Z 30004KT 270V330 9999 FEW005 BKN060 12/10 Q1021 NOSIG
  • 250450Z 29003KT 270V330 9999 SCT026 BKN050 12/10 Q1021 NOSIG
  • 250420Z VRB02KT 9999 -DZ FEW005 SCT016 BKN025 11/10 Q1021 NOSIG
  • 250350Z VRB02KT 9999 FEW012 BKN016 11/10 Q1020 NOSIG
  • 250320Z VRB02KT 9999 -DZ FEW005 SCT015 BKN025 11/10 Q1020 NOSIG

TAF TAF EDDM
Valid from the 25 at 06:00 until the 26 at 12:00 UTC


250500Z 2506/2612 31004KT 9999 FEW012 SCT020 BKN040
No reported NOTAMs for that airfield.



MET'MAP, your aeronautical weather chart ! - Copyright ORBIFLY December 2007 - Disclaimer

ORBIFLY MET'MAP TEAM :

Programming & Development : Alexandra Zaïnal
Concept & Development : Baudouin d'Aumeries
Co-Development & Prog : Marc-Olivier Méhu
Technical & hardware support : Manuel Goepfert

Contact : metmap@orbifly.com




SOURCES & CREDITS :

   NOAA